sensor_id;sensor_type;location;lat;lon;timestamp;temperature;humidity
12557;DHT22;6344;49.932;8.308;2023-05-07T00:01:37;14.80;99.90
12557;DHT22;6344;49.932;8.308;2023-05-07T00:04:04;14.70;99.90
12557;DHT22;6344;49.932;8.308;2023-05-07T00:06:32;14.70;99.90
12557;DHT22;6344;49.932;8.308;2023-05-07T00:08:59;14.80;99.90
12557;DHT22;6344;49.932;8.308;2023-05-07T00:11:26;15.00;99.90
12557;DHT22;6344;49.932;8.308;2023-05-07T00:13:53;15.00;99.90
12557;DHT22;6344;49.932;8.308;2023-05-07T00:16:19;14.70;99.90
12557;DHT22;6344;49.932;8.308;2023-05-07T00:18:47;14.50;99.90
12557;DHT22;6344;49.932;8.308;2023-05-07T00:21:14;14.40;99.90
12557;DHT22;6344;49.932;8.308;2023-05-07T00:23:41;14.20;99.90
12557;DHT22;6344;49.932;8.308;2023-05-07T00:26:07;14.10;99.90
12557;DHT22;6344;49.932;8.308;2023-05-07T00:28:34;14.00;99.90
12557;DHT22;6344;49.932;8.308;2023-05-07T00:31:01;14.00;99.90
12557;DHT22;6344;49.932;8.308;2023-05-07T00:33:27;14.00;99.90
12557;DHT22;6344;49.932;8.308;2023-05-07T00:35:55;13.90;99.90
12557;DHT22;6344;49.932;8.308;2023-05-07T00:38:22;13.90;99.90
12557;DHT22;6344;49.932;8.308;2023-05-07T00:40:48;14.00;99.90
12557;DHT22;6344;49.932;8.308;2023-05-07T00:43:16;14.10;99.90
12557;DHT22;6344;49.932;8.308;2023-05-07T00:45:43;14.00;99.90
12557;DHT22;6344;49.932;8.308;2023-05-07T00:48:10;13.90;99.90
12557;DHT22;6344;49.932;8.308;2023-05-07T00:50:37;13.80;99.90
12557;DHT22;6344;49.932;8.308;2023-05-07T00:53:05;13.80;99.90
12557;DHT22;6344;49.932;8.308;2023-05-07T00:55:32;13.80;99.90
12557;DHT22;6344;49.932;8.308;2023-05-07T00:57:59;13.80;99.90
12557;DHT22;6344;49.932;8.308;2023-05-07T01:00:26;13.90;99.90
12557;DHT22;6344;49.932;8.308;2023-05-07T01:02:53;13.80;99.90
12557;DHT22;6344;49.932;8.308;2023-05-07T01:05:20;14.00;99.90
12557;DHT22;6344;49.932;8.308;2023-05-07T01:07:50;13.90;99.90
12557;DHT22;6344;49.932;8.308;2023-05-07T01:10:19;13.90;99.90
12557;DHT22;6344;49.932;8.308;2023-05-07T01:12:46;13.90;99.90
12557;DHT22;6344;49.932;8.308;2023-05-07T01:15:14;13.80;99.90
12557;DHT22;6344;49.932;8.308;2023-05-07T01:17:42;13.80;99.90
12557;DHT22;6344;49.932;8.308;2023-05-07T01:20:09;13.70;99.90
12557;DHT22;6344;49.932;8.308;2023-05-07T01:22:38;13.70;99.90
12557;DHT22;6344;49.932;8.308;2023-05-07T01:25:06;13.80;99.90
12557;DHT22;6344;49.932;8.308;2023-05-07T01:27:33;13.80;99.90
12557;DHT22;6344;49.932;8.308;2023-05-07T01:30:01;13.90;99.90
12557;DHT22;6344;49.932;8.308;2023-05-07T01:32:32;14.10;99.90
12557;DHT22;6344;49.932;8.308;2023-05-07T01:35:01;14.20;99.90
12557;DHT22;6344;49.932;8.308;2023-05-07T01:37:29;14.30;99.90
12557;DHT22;6344;49.932;8.308;2023-05-07T01:39:57;14.40;99.90
12557;DHT22;6344;49.932;8.308;2023-05-07T01:42:24;14.20;99.90
12557;DHT22;6344;49.932;8.308;2023-05-07T01:44:51;14.10;99.90
12557;DHT22;6344;49.932;8.308;2023-05-07T01:47:18;14.10;99.90
12557;DHT22;6344;49.932;8.308;2023-05-07T01:49:45;14.00;99.90
12557;DHT22;6344;49.932;8.308;2023-05-07T01:52:12;14.10;99.90
12557;DHT22;6344;49.932;8.308;2023-05-07T01:54:39;14.10;99.90
12557;DHT22;6344;49.932;8.308;2023-05-07T01:57:07;14.10;99.90
12557;DHT22;6344;49.932;8.308;2023-05-07T01:59:34;14.10;99.90
12557;DHT22;6344;49.932;8.308;2023-05-07T02:02:01;14.30;99.90
12557;DHT22;6344;49.932;8.308;2023-05-07T02:04:27;14.50;99.90
12557;DHT22;6344;49.932;8.308;2023-05-07T02:06:54;14.40;99.90
12557;DHT22;6344;49.932;8.308;2023-05-07T02:09:21;14.30;99.90
12557;DHT22;6344;49.932;8.308;2023-05-07T02:11:48;14.30;99.90
12557;DHT22;6344;49.932;8.308;2023-05-07T02:14:16;14.30;99.90
12557;DHT22;6344;49.932;8.308;2023-05-07T02:16:42;14.20;99.90
12557;DHT22;6344;49.932;8.308;2023-05-07T02:19:09;14.30;99.90
12557;DHT22;6344;49.932;8.308;2023-05-07T02:21:36;14.20;99.90
12557;DHT22;6344;49.932;8.308;2023-05-07T02:24:03;14.20;99.90
12557;DHT22;6344;49.932;8.308;2023-05-07T02:26:29;14.20;99.90
12557;DHT22;6344;49.932;8.308;2023-05-07T02:28:56;14.30;99.90
12557;DHT22;6344;49.932;8.308;2023-05-07T02:31:24;14.30;99.90
12557;DHT22;6344;49.932;8.308;2023-05-07T02:33:51;14.20;99.90
12557;DHT22;6344;49.932;8.308;2023-05-07T02:36:17;14.30;99.90
12557;DHT22;6344;49.932;8.308;2023-05-07T02:38:44;14.40;99.90
12557;DHT22;6344;49.932;8.308;2023-05-07T02:41:10;14.50;99.90
12557;DHT22;6344;49.932;8.308;2023-05-07T02:43:37;14.40;99.90
12557;DHT22;6344;49.932;8.308;2023-05-07T02:46:05;14.40;99.90
12557;DHT22;6344;49.932;8.308;2023-05-07T02:48:34;14.30;99.90
12557;DHT22;6344;49.932;8.308;2023-05-07T02:51:01;14.40;99.90
12557;DHT22;6344;49.932;8.308;2023-05-07T02:53:28;14.40;99.90
12557;DHT22;6344;49.932;8.308;2023-05-07T02:55:56;14.50;99.90
12557;DHT22;6344;49.932;8.308;2023-05-07T02:58:23;14.50;99.90
12557;DHT22;6344;49.932;8.308;2023-05-07T03:00:50;14.50;99.90
12557;DHT22;6344;49.932;8.308;2023-05-07T03:03:16;14.50;99.90
12557;DHT22;6344;49.932;8.308;2023-05-07T03:05:44;14.50;99.90
12557;DHT22;6344;49.932;8.308;2023-05-07T03:08:11;14.70;99.90
12557;DHT22;6344;49.932;8.308;2023-05-07T03:10:38;14.80;99.90
12557;DHT22;6344;49.932;8.308;2023-05-07T03:13:05;14.70;99.90
12557;DHT22;6344;49.932;8.308;2023-05-07T03:15:31;14.70;99.90
12557;DHT22;6344;49.932;8.308;2023-05-07T03:17:58;15.00;99.90
12557;DHT22;6344;49.932;8.308;2023-05-07T03:20:24;15.10;99.90
12557;DHT22;6344;49.932;8.308;2023-05-07T03:22:52;15.10;99.90
12557;DHT22;6344;49.932;8.308;2023-05-07T03:25:19;14.90;99.90
12557;DHT22;6344;49.932;8.308;2023-05-07T03:27:46;14.80;99.90
12557;DHT22;6344;49.932;8.308;2023-05-07T03:30:12;14.70;99.90
12557;DHT22;6344;49.932;8.308;2023-05-07T03:32:39;14.70;99.90
12557;DHT22;6344;49.932;8.308;2023-05-07T03:35:06;14.50;99.90
12557;DHT22;6344;49.932;8.308;2023-05-07T03:37:33;14.70;99.90
12557;DHT22;6344;49.932;8.308;2023-05-07T03:40:01;14.70;99.90
12557;DHT22;6344;49.932;8.308;2023-05-07T03:42:28;14.60;99.90
12557;DHT22;6344;49.932;8.308;2023-05-07T03:44:55;14.70;99.90
12557;DHT22;6344;49.932;8.308;2023-05-07T03:47:22;14.60;99.90
12557;DHT22;6344;49.932;8.308;2023-05-07T03:49:48;14.60;99.90
12557;DHT22;6344;49.932;8.308;2023-05-07T03:52:15;14.60;99.90
12557;DHT22;6344;49.932;8.308;2023-05-07T03:54:48;14.60;99.90
12557;DHT22;6344;49.932;8.308;2023-05-07T03:57:15;14.70;99.90
12557;DHT22;6344;49.932;8.308;2023-05-07T03:59:42;14.80;99.90
12557;DHT22;6344;49.932;8.308;2023-05-07T04:02:09;14.90;99.90
12557;DHT22;6344;49.932;8.308;2023-05-07T04:04:35;14.80;99.90
12557;DHT22;6344;49.932;8.308;2023-05-07T04:07:02;14.90;99.90
12557;DHT22;6344;49.932;8.308;2023-05-07T04:09:29;14.80;99.90
12557;DHT22;6344;49.932;8.308;2023-05-07T04:11:56;14.90;99.90
12557;DHT22;6344;49.932;8.308;2023-05-07T04:14:24;14.80;99.90
12557;DHT22;6344;49.932;8.308;2023-05-07T04:16:51;15.00;99.90
12557;DHT22;6344;49.932;8.308;2023-05-07T04:19:17;14.90;99.90
12557;DHT22;6344;49.932;8.308;2023-05-07T04:21:44;14.90;99.90
12557;DHT22;6344;49.932;8.308;2023-05-07T04:24:10;15.00;99.90
12557;DHT22;6344;49.932;8.308;2023-05-07T04:26:37;15.00;99.90
12557;DHT22;6344;49.932;8.308;2023-05-07T04:29:04;15.00;99.90
12557;DHT22;6344;49.932;8.308;2023-05-07T04:31:32;15.00;99.90
12557;DHT22;6344;49.932;8.308;2023-05-07T04:33:59;15.00;99.90
12557;DHT22;6344;49.932;8.308;2023-05-07T04:36:26;15.00;99.90
12557;DHT22;6344;49.932;8.308;2023-05-07T04:38:54;15.00;99.90
12557;DHT22;6344;49.932;8.308;2023-05-07T04:41:21;15.20;99.90
12557;DHT22;6344;49.932;8.308;2023-05-07T04:43:47;15.20;99.90
12557;DHT22;6344;49.932;8.308;2023-05-07T04:46:14;15.30;99.90
12557;DHT22;6344;49.932;8.308;2023-05-07T04:48:42;15.30;99.90
12557;DHT22;6344;49.932;8.308;2023-05-07T04:51:09;15.30;99.90
12557;DHT22;6344;49.932;8.308;2023-05-07T04:53:37;15.30;99.90
12557;DHT22;6344;49.932;8.308;2023-05-07T04:56:04;15.40;99.90
12557;DHT22;6344;49.932;8.308;2023-05-07T04:58:31;15.40;99.90
12557;DHT22;6344;49.932;8.308;2023-05-07T05:00:57;15.50;99.90
12557;DHT22;6344;49.932;8.308;2023-05-07T05:03:24;15.40;99.90
12557;DHT22;6344;49.932;8.308;2023-05-07T05:05:52;15.50;99.90
12557;DHT22;6344;49.932;8.308;2023-05-07T05:08:19;15.60;99.90
12557;DHT22;6344;49.932;8.308;2023-05-07T05:10:45;15.70;99.90
12557;DHT22;6344;49.932;8.308;2023-05-07T05:13:14;15.70;99.90
12557;DHT22;6344;49.932;8.308;2023-05-07T05:15:40;15.80;99.90
12557;DHT22;6344;49.932;8.308;2023-05-07T05:18:07;15.80;99.90
12557;DHT22;6344;49.932;8.308;2023-05-07T05:20:34;15.90;99.90
12557;DHT22;6344;49.932;8.308;2023-05-07T05:23:02;16.00;99.90
12557;DHT22;6344;49.932;8.308;2023-05-07T05:25:28;16.10;99.90
12557;DHT22;6344;49.932;8.308;2023-05-07T05:27:55;16.20;99.90
12557;DHT22;6344;49.932;8.308;2023-05-07T05:30:22;16.20;99.90
12557;DHT22;6344;49.932;8.308;2023-05-07T05:32:48;16.30;99.90
12557;DHT22;6344;49.932;8.308;2023-05-07T05:35:15;16.30;99.90
12557;DHT22;6344;49.932;8.308;2023-05-07T05:37:42;16.40;99.90
12557;DHT22;6344;49.932;8.308;2023-05-07T05:40:11;16.40;99.90
12557;DHT22;6344;49.932;8.308;2023-05-07T05:42:37;16.50;99.90
12557;DHT22;6344;49.932;8.308;2023-05-07T05:45:05;16.60;88.60
12557;DHT22;6344;49.932;8.308;2023-05-07T05:47:32;16.70;71.60
12557;DHT22;6344;49.932;8.308;2023-05-07T05:49:58;16.80;90.90
12557;DHT22;6344;49.932;8.308;2023-05-07T05:52:25;17.00;99.90
12557;DHT22;6344;49.932;8.308;2023-05-07T05:54:53;17.10;94.40
12557;DHT22;6344;49.932;8.308;2023-05-07T05:57:21;17.10;93.40
12557;DHT22;6344;49.932;8.308;2023-05-07T05:59:48;17.20;91.10
12557;DHT22;6344;49.932;8.308;2023-05-07T06:02:14;17.20;99.90
12557;DHT22;6344;49.932;8.308;2023-05-07T06:04:41;17.40;95.40
12557;DHT22;6344;49.932;8.308;2023-05-07T06:07:08;17.30;99.90
12557;DHT22;6344;49.932;8.308;2023-05-07T06:09:34;17.20;46.40
12557;DHT22;6344;49.932;8.308;2023-05-07T06:12:01;17.30;35.50
12557;DHT22;6344;49.932;8.308;2023-05-07T06:14:29;17.30;31.60
12557;DHT22;6344;49.932;8.308;2023-05-07T06:16:56;17.20;28.40
12557;DHT22;6344;49.932;8.308;2023-05-07T06:19:23;17.50;99.90
12557;DHT22;6344;49.932;8.308;2023-05-07T06:21:51;17.60;9.90
12557;DHT22;6344;49.932;8.308;2023-05-07T06:24:18;17.80;2.70
12557;DHT22;6344;49.932;8.308;2023-05-07T06:26:45;17.90;85.10
12557;DHT22;6344;49.932;8.308;2023-05-07T06:29:11;18.10;3.60
12557;DHT22;6344;49.932;8.308;2023-05-07T06:31:39;18.30;25.50
12557;DHT22;6344;49.932;8.308;2023-05-07T06:34:06;18.10;76.00
12557;DHT22;6344;49.932;8.308;2023-05-07T06:36:33;18.10;71.60
12557;DHT22;6344;49.932;8.308;2023-05-07T06:39:00;18.10;99.90
12557;DHT22;6344;49.932;8.308;2023-05-07T06:41:27;18.30;1.00
12557;DHT22;6344;49.932;8.308;2023-05-07T06:43:53;18.30;53.10
12557;DHT22;6344;49.932;8.308;2023-05-07T06:46:20;18.50;1.00
12557;DHT22;6344;49.932;8.308;2023-05-07T06:48:48;18.50;99.90
12557;DHT22;6344;49.932;8.308;2023-05-07T06:51:14;18.50;99.90
12557;DHT22;6344;49.932;8.308;2023-05-07T06:53:41;18.70;57.60
12557;DHT22;6344;49.932;8.308;2023-05-07T06:56:08;18.60;99.90
12557;DHT22;6344;49.932;8.308;2023-05-07T06:58:34;18.70;1.00
12557;DHT22;6344;49.932;8.308;2023-05-07T07:01:01;18.80;20.90
12557;DHT22;6344;49.932;8.308;2023-05-07T07:03:27;18.70;1.00
12557;DHT22;6344;49.932;8.308;2023-05-07T07:05:56;18.80;1.00
12557;DHT22;6344;49.932;8.308;2023-05-07T07:08:23;18.80;1.00
12557;DHT22;6344;49.932;8.308;2023-05-07T07:10:50;18.50;1.00
12557;DHT22;6344;49.932;8.308;2023-05-07T07:13:16;18.50;1.00
12557;DHT22;6344;49.932;8.308;2023-05-07T07:15:43;18.60;1.00
12557;DHT22;6344;49.932;8.308;2023-05-07T07:18:10;18.70;1.00
12557;DHT22;6344;49.932;8.308;2023-05-07T07:20:37;18.50;1.00
12557;DHT22;6344;49.932;8.308;2023-05-07T07:23:05;18.40;1.00
12557;DHT22;6344;49.932;8.308;2023-05-07T07:25:31;18.60;1.00
12557;DHT22;6344;49.932;8.308;2023-05-07T07:27:59;18.70;32.40
12557;DHT22;6344;49.932;8.308;2023-05-07T07:30:25;18.80;1.00
12557;DHT22;6344;49.932;8.308;2023-05-07T07:32:52;18.90;1.00
12557;DHT22;6344;49.932;8.308;2023-05-07T07:35:19;18.70;1.00
12557;DHT22;6344;49.932;8.308;2023-05-07T07:37:46;18.60;1.00
12557;DHT22;6344;49.932;8.308;2023-05-07T07:40:16;18.70;1.00
12557;DHT22;6344;49.932;8.308;2023-05-07T07:42:43;18.70;1.00
12557;DHT22;6344;49.932;8.308;2023-05-07T07:45:10;18.70;1.00
12557;DHT22;6344;49.932;8.308;2023-05-07T07:47:37;19.00;1.00
12557;DHT22;6344;49.932;8.308;2023-05-07T07:50:04;19.10;1.00
12557;DHT22;6344;49.932;8.308;2023-05-07T07:52:31;19.00;1.00
12557;DHT22;6344;49.932;8.308;2023-05-07T07:54:58;18.90;1.00
12557;DHT22;6344;49.932;8.308;2023-05-07T07:57:26;19.00;99.90
12557;DHT22;6344;49.932;8.308;2023-05-07T07:59:52;18.90;1.00
12557;DHT22;6344;49.932;8.308;2023-05-07T08:02:19;18.80;1.00
12557;DHT22;6344;49.932;8.308;2023-05-07T08:04:46;19.20;1.00
12557;DHT22;6344;49.932;8.308;2023-05-07T08:07:13;19.50;1.00
12557;DHT22;6344;49.932;8.308;2023-05-07T08:09:40;19.30;99.90
12557;DHT22;6344;49.932;8.308;2023-05-07T08:12:07;19.40;99.90
12557;DHT22;6344;49.932;8.308;2023-05-07T08:14:35;19.40;99.90
12557;DHT22;6344;49.932;8.308;2023-05-07T08:17:02;19.50;99.90
12557;DHT22;6344;49.932;8.308;2023-05-07T08:19:29;19.80;99.90
12557;DHT22;6344;49.932;8.308;2023-05-07T08:21:56;20.00;99.90
12557;DHT22;6344;49.932;8.308;2023-05-07T08:24:22;20.10;99.90
12557;DHT22;6344;49.932;8.308;2023-05-07T08:26:49;20.10;99.90
12557;DHT22;6344;49.932;8.308;2023-05-07T08:29:16;20.20;99.90
12557;DHT22;6344;49.932;8.308;2023-05-07T08:31:43;20.60;99.90
12557;DHT22;6344;49.932;8.308;2023-05-07T08:34:10;20.40;99.90
12557;DHT22;6344;49.932;8.308;2023-05-07T08:36:37;20.40;99.90
12557;DHT22;6344;49.932;8.308;2023-05-07T08:39:03;20.40;99.90
12557;DHT22;6344;49.932;8.308;2023-05-07T08:41:31;20.40;99.90
12557;DHT22;6344;49.932;8.308;2023-05-07T08:43:58;20.80;99.90
12557;DHT22;6344;49.932;8.308;2023-05-07T08:46:25;21.10;99.90
12557;DHT22;6344;49.932;8.308;2023-05-07T08:48:58;21.20;99.90
12557;DHT22;6344;49.932;8.308;2023-05-07T08:51:25;21.10;99.90
12557;DHT22;6344;49.932;8.308;2023-05-07T08:53:52;21.20;99.90
12557;DHT22;6344;49.932;8.308;2023-05-07T08:56:19;21.30;99.90
12557;DHT22;6344;49.932;8.308;2023-05-07T08:58:47;21.60;99.90
12557;DHT22;6344;49.932;8.308;2023-05-07T09:01:16;21.50;99.90
12557;DHT22;6344;49.932;8.308;2023-05-07T09:03:44;21.40;99.90
12557;DHT22;6344;49.932;8.308;2023-05-07T09:06:13;21.90;99.90
12557;DHT22;6344;49.932;8.308;2023-05-07T09:08:40;22.20;99.90
12557;DHT22;6344;49.932;8.308;2023-05-07T09:11:07;22.50;99.90
12557;DHT22;6344;49.932;8.308;2023-05-07T09:13:33;22.40;99.90
12557;DHT22;6344;49.932;8.308;2023-05-07T09:16:10;22.50;99.90
12557;DHT22;6344;49.932;8.308;2023-05-07T09:18:40;22.40;99.90
12557;DHT22;6344;49.932;8.308;2023-05-07T09:21:09;22.50;99.90
12557;DHT22;6344;49.932;8.308;2023-05-07T09:23:38;22.70;99.90
12557;DHT22;6344;49.932;8.308;2023-05-07T09:26:05;23.20;99.90
12557;DHT22;6344;49.932;8.308;2023-05-07T09:28:38;23.40;99.90
12557;DHT22;6344;49.932;8.308;2023-05-07T09:31:05;24.20;99.90
12557;DHT22;6344;49.932;8.308;2023-05-07T09:33:31;24.10;99.90
12557;DHT22;6344;49.932;8.308;2023-05-07T09:35:58;24.40;99.90
12557;DHT22;6344;49.932;8.308;2023-05-07T09:38:25;24.00;99.90
12557;DHT22;6344;49.932;8.308;2023-05-07T09:41:03;23.10;99.90
12557;DHT22;6344;49.932;8.308;2023-05-07T09:43:32;23.00;99.90
12557;DHT22;6344;49.932;8.308;2023-05-07T09:46:06;23.60;99.90
12557;DHT22;6344;49.932;8.308;2023-05-07T09:48:35;24.30;99.90
12557;DHT22;6344;49.932;8.308;2023-05-07T09:51:06;24.20;99.90
12557;DHT22;6344;49.932;8.308;2023-05-07T09:53:38;24.30;99.90
12557;DHT22;6344;49.932;8.308;2023-05-07T09:56:08;24.20;99.90
12557;DHT22;6344;49.932;8.308;2023-05-07T09:58:37;24.20;99.90
12557;DHT22;6344;49.932;8.308;2023-05-07T10:01:05;24.80;99.90
12557;DHT22;6344;49.932;8.308;2023-05-07T10:03:33;24.60;99.90
12557;DHT22;6344;49.932;8.308;2023-05-07T10:06:01;24.30;99.90
12557;DHT22;6344;49.932;8.308;2023-05-07T10:08:30;24.20;99.90
12557;DHT22;6344;49.932;8.308;2023-05-07T10:10:58;23.90;99.90
12557;DHT22;6344;49.932;8.308;2023-05-07T10:13:27;24.20;99.90
12557;DHT22;6344;49.932;8.308;2023-05-07T10:15:53;24.20;99.90
12557;DHT22;6344;49.932;8.308;2023-05-07T10:18:21;24.00;99.90
12557;DHT22;6344;49.932;8.308;2023-05-07T10:20:51;24.40;99.90
12557;DHT22;6344;49.932;8.308;2023-05-07T10:23:23;24.80;99.90
12557;DHT22;6344;49.932;8.308;2023-05-07T10:25:50;25.60;99.90
12557;DHT22;6344;49.932;8.308;2023-05-07T10:28:17;25.50;99.90
12557;DHT22;6344;49.932;8.308;2023-05-07T10:30:56;26.90;99.90
12557;DHT22;6344;49.932;8.308;2023-05-07T10:33:29;26.70;99.90
12557;DHT22;6344;49.932;8.308;2023-05-07T10:35:59;26.70;99.90
12557;DHT22;6344;49.932;8.308;2023-05-07T10:38:27;26.70;99.90
12557;DHT22;6344;49.932;8.308;2023-05-07T10:40:54;27.60;99.90
12557;DHT22;6344;49.932;8.308;2023-05-07T10:43:21;27.60;99.90
12557;DHT22;6344;49.932;8.308;2023-05-07T10:46:10;27.50;99.90
12557;DHT22;6344;49.932;8.308;2023-05-07T10:49:06;27.50;99.90
12557;DHT22;6344;49.932;8.308;2023-05-07T10:51:33;27.90;99.90
12557;DHT22;6344;49.932;8.308;2023-05-07T10:54:22;28.30;99.90
12557;DHT22;6344;49.932;8.308;2023-05-07T10:56:50;28.90;99.90
12557;DHT22;6344;49.932;8.308;2023-05-07T10:59:34;29.30;5.30
12557;DHT22;6344;49.932;8.308;2023-05-07T11:02:08;29.10;1.10
12557;DHT22;6344;49.932;8.308;2023-05-07T11:04:36;28.00;1.00
12557;DHT22;6344;49.932;8.308;2023-05-07T11:07:27;28.50;1.00
12557;DHT22;6344;49.932;8.308;2023-05-07T11:09:55;28.50;1.00
12557;DHT22;6344;49.932;8.308;2023-05-07T11:12:53;28.90;1.00
12557;DHT22;6344;49.932;8.308;2023-05-07T11:15:34;28.40;1.00
12557;DHT22;6344;49.932;8.308;2023-05-07T11:18:03;29.00;1.00
12557;DHT22;6344;49.932;8.308;2023-05-07T11:20:53;28.40;1.00
12557;DHT22;6344;49.932;8.308;2023-05-07T11:23:54;28.60;1.00
12557;DHT22;6344;49.932;8.308;2023-05-07T11:26:21;28.50;1.00
12557;DHT22;6344;49.932;8.308;2023-05-07T11:28:49;28.80;1.00
12557;DHT22;6344;49.932;8.308;2023-05-07T11:31:21;28.90;1.00
12557;DHT22;6344;49.932;8.308;2023-05-07T11:33:50;28.80;1.00
12557;DHT22;6344;49.932;8.308;2023-05-07T11:36:18;28.50;1.00
12557;DHT22;6344;49.932;8.308;2023-05-07T11:38:46;27.90;1.00
12557;DHT22;6344;49.932;8.308;2023-05-07T11:41:12;27.60;1.00
12557;DHT22;6344;49.932;8.308;2023-05-07T11:43:53;27.40;1.00
12557;DHT22;6344;49.932;8.308;2023-05-07T11:46:21;27.00;1.00
12557;DHT22;6344;49.932;8.308;2023-05-07T11:48:47;27.70;1.00
12557;DHT22;6344;49.932;8.308;2023-05-07T11:51:19;28.10;1.00
12557;DHT22;6344;49.932;8.308;2023-05-07T11:53:45;28.30;1.00
12557;DHT22;6344;49.932;8.308;2023-05-07T11:56:13;28.80;1.00
12557;DHT22;6344;49.932;8.308;2023-05-07T11:58:41;28.70;1.00
12557;DHT22;6344;49.932;8.308;2023-05-07T12:01:08;28.70;1.00
12557;DHT22;6344;49.932;8.308;2023-05-07T12:03:35;29.00;1.00
12557;DHT22;6344;49.932;8.308;2023-05-07T12:06:04;29.20;1.00
12557;DHT22;6344;49.932;8.308;2023-05-07T12:08:33;29.10;1.00
12557;DHT22;6344;49.932;8.308;2023-05-07T12:11:02;29.10;1.00
12557;DHT22;6344;49.932;8.308;2023-05-07T12:13:28;27.90;1.00
12557;DHT22;6344;49.932;8.308;2023-05-07T12:15:56;27.70;1.00
12557;DHT22;6344;49.932;8.308;2023-05-07T12:18:23;28.60;1.00
12557;DHT22;6344;49.932;8.308;2023-05-07T12:20:50;29.10;1.00
12557;DHT22;6344;49.932;8.308;2023-05-07T12:23:17;29.60;1.00
12557;DHT22;6344;49.932;8.308;2023-05-07T12:25:45;29.30;1.00
12557;DHT22;6344;49.932;8.308;2023-05-07T12:28:13;29.20;1.00
12557;DHT22;6344;49.932;8.308;2023-05-07T12:30:40;29.20;1.00
12557;DHT22;6344;49.932;8.308;2023-05-07T12:33:08;28.50;1.00
12557;DHT22;6344;49.932;8.308;2023-05-07T12:35:37;28.80;1.00
12557;DHT22;6344;49.932;8.308;2023-05-07T12:38:07;29.20;1.00
12557;DHT22;6344;49.932;8.308;2023-05-07T12:40:38;28.90;1.00
12557;DHT22;6344;49.932;8.308;2023-05-07T12:43:07;28.30;1.00
12557;DHT22;6344;49.932;8.308;2023-05-07T12:45:37;28.20;1.00
12557;DHT22;6344;49.932;8.308;2023-05-07T12:48:05;28.20;1.00
12557;DHT22;6344;49.932;8.308;2023-05-07T12:50:32;28.70;1.00
12557;DHT22;6344;49.932;8.308;2023-05-07T12:52:59;28.60;1.00
12557;DHT22;6344;49.932;8.308;2023-05-07T12:55:29;28.80;1.00
12557;DHT22;6344;49.932;8.308;2023-05-07T12:57:55;29.10;1.00
12557;DHT22;6344;49.932;8.308;2023-05-07T13:00:37;29.30;1.00
12557;DHT22;6344;49.932;8.308;2023-05-07T13:03:05;29.40;1.00
12557;DHT22;6344;49.932;8.308;2023-05-07T13:05:31;28.70;1.00
12557;DHT22;6344;49.932;8.308;2023-05-07T13:07:59;29.60;1.00
12557;DHT22;6344;49.932;8.308;2023-05-07T13:10:26;29.40;1.00
12557;DHT22;6344;49.932;8.308;2023-05-07T13:12:53;30.00;1.00
12557;DHT22;6344;49.932;8.308;2023-05-07T13:15:20;30.40;2.60
12557;DHT22;6344;49.932;8.308;2023-05-07T13:17:48;31.00;99.90
12557;DHT22;6344;49.932;8.308;2023-05-07T13:20:15;31.20;1.00
12557;DHT22;6344;49.932;8.308;2023-05-07T13:22:42;31.40;1.00
12557;DHT22;6344;49.932;8.308;2023-05-07T13:25:09;31.00;1.00
12557;DHT22;6344;49.932;8.308;2023-05-07T13:27:35;31.60;1.00
12557;DHT22;6344;49.932;8.308;2023-05-07T13:30:03;31.70;1.00
12557;DHT22;6344;49.932;8.308;2023-05-07T13:32:30;31.80;1.00
12557;DHT22;6344;49.932;8.308;2023-05-07T13:34:59;31.40;1.00
12557;DHT22;6344;49.932;8.308;2023-05-07T13:37:25;30.80;1.00
12557;DHT22;6344;49.932;8.308;2023-05-07T13:39:52;30.90;1.00
12557;DHT22;6344;49.932;8.308;2023-05-07T13:42:19;31.10;1.00
12557;DHT22;6344;49.932;8.308;2023-05-07T13:44:45;30.50;1.00
12557;DHT22;6344;49.932;8.308;2023-05-07T13:47:12;29.80;1.00
12557;DHT22;6344;49.932;8.308;2023-05-07T13:49:38;28.90;1.00
12557;DHT22;6344;49.932;8.308;2023-05-07T13:52:06;28.30;1.00
12557;DHT22;6344;49.932;8.308;2023-05-07T13:54:33;27.80;1.00
12557;DHT22;6344;49.932;8.308;2023-05-07T13:57:00;27.40;1.00
12557;DHT22;6344;49.932;8.308;2023-05-07T13:59:27;27.60;1.00
12557;DHT22;6344;49.932;8.308;2023-05-07T14:01:53;27.20;1.00
12557;DHT22;6344;49.932;8.308;2023-05-07T14:04:21;26.90;1.00
12557;DHT22;6344;49.932;8.308;2023-05-07T14:06:47;27.10;1.00
12557;DHT22;6344;49.932;8.308;2023-05-07T14:09:15;27.20;1.00
12557;DHT22;6344;49.932;8.308;2023-05-07T14:11:42;27.50;1.00
12557;DHT22;6344;49.932;8.308;2023-05-07T14:14:09;28.10;1.00
12557;DHT22;6344;49.932;8.308;2023-05-07T14:16:36;28.20;1.00
12557;DHT22;6344;49.932;8.308;2023-05-07T14:19:03;28.20;1.00
12557;DHT22;6344;49.932;8.308;2023-05-07T14:21:30;28.20;1.00
12557;DHT22;6344;49.932;8.308;2023-05-07T14:23:57;27.00;1.00
12557;DHT22;6344;49.932;8.308;2023-05-07T14:26:26;27.50;1.00
12557;DHT22;6344;49.932;8.308;2023-05-07T14:28:53;27.30;1.00
12557;DHT22;6344;49.932;8.308;2023-05-07T14:31:22;27.40;1.00
12557;DHT22;6344;49.932;8.308;2023-05-07T14:33:49;27.30;1.00
12557;DHT22;6344;49.932;8.308;2023-05-07T14:36:16;27.20;1.00
12557;DHT22;6344;49.932;8.308;2023-05-07T14:38:42;27.30;1.00
12557;DHT22;6344;49.932;8.308;2023-05-07T14:41:09;27.50;1.00
12557;DHT22;6344;49.932;8.308;2023-05-07T14:43:37;27.10;1.00
12557;DHT22;6344;49.932;8.308;2023-05-07T14:46:04;27.00;1.00
12557;DHT22;6344;49.932;8.308;2023-05-07T14:48:30;27.10;1.00
12557;DHT22;6344;49.932;8.308;2023-05-07T14:50:57;26.80;1.00
12557;DHT22;6344;49.932;8.308;2023-05-07T14:53:24;26.90;1.00
12557;DHT22;6344;49.932;8.308;2023-05-07T14:55:51;26.70;1.00
12557;DHT22;6344;49.932;8.308;2023-05-07T14:58:17;26.90;1.00
12557;DHT22;6344;49.932;8.308;2023-05-07T15:00:45;26.80;1.00
12557;DHT22;6344;49.932;8.308;2023-05-07T15:03:12;26.60;1.00
12557;DHT22;6344;49.932;8.308;2023-05-07T15:05:39;26.30;1.00
12557;DHT22;6344;49.932;8.308;2023-05-07T15:08:06;26.30;1.00
12557;DHT22;6344;49.932;8.308;2023-05-07T15:10:35;26.00;1.00
12557;DHT22;6344;49.932;8.308;2023-05-07T15:13:06;26.00;1.00
12557;DHT22;6344;49.932;8.308;2023-05-07T15:15:32;25.80;1.00
12557;DHT22;6344;49.932;8.308;2023-05-07T15:18:01;25.70;1.00
12557;DHT22;6344;49.932;8.308;2023-05-07T15:20:27;25.40;1.00
12557;DHT22;6344;49.932;8.308;2023-05-07T15:22:54;25.30;1.00
12557;DHT22;6344;49.932;8.308;2023-05-07T15:25:21;25.20;1.00
12557;DHT22;6344;49.932;8.308;2023-05-07T15:27:48;25.00;1.00
12557;DHT22;6344;49.932;8.308;2023-05-07T15:30:15;24.90;1.00
12557;DHT22;6344;49.932;8.308;2023-05-07T15:32:42;24.70;1.00
12557;DHT22;6344;49.932;8.308;2023-05-07T15:35:10;24.80;1.00
12557;DHT22;6344;49.932;8.308;2023-05-07T15:37:37;24.80;1.00
12557;DHT22;6344;49.932;8.308;2023-05-07T15:40:05;24.80;1.00
12557;DHT22;6344;49.932;8.308;2023-05-07T15:42:32;24.60;1.00
12557;DHT22;6344;49.932;8.308;2023-05-07T15:44:59;24.50;1.00
12557;DHT22;6344;49.932;8.308;2023-05-07T15:47:26;24.50;1.00
12557;DHT22;6344;49.932;8.308;2023-05-07T15:49:53;24.50;1.00
12557;DHT22;6344;49.932;8.308;2023-05-07T15:52:22;24.50;1.00
12557;DHT22;6344;49.932;8.308;2023-05-07T15:54:48;24.50;1.00
12557;DHT22;6344;49.932;8.308;2023-05-07T15:57:15;24.50;1.00